createdAt,value
2019-03-15T00:01:42.700Z,1.50
2019-03-15T00:04:12.700Z,1.97
2019-03-15T00:06:42.632Z,2.00
2019-03-15T00:09:13.065Z,2.73
2019-03-15T00:11:43.037Z,2.77
2019-03-15T00:14:13.220Z,1.97
2019-03-15T00:16:43.936Z,1.70
2019-03-15T00:19:17.933Z,2.50
2019-03-15T00:21:47.816Z,1.70
2019-03-15T00:24:17.745Z,1.70
2019-03-15T00:26:47.649Z,2.20
2019-03-15T00:29:20.967Z,1.53
2019-03-15T00:31:51.871Z,2.07
2019-03-15T00:34:21.841Z,1.40
2019-03-15T00:36:52.433Z,2.17
2019-03-15T00:39:23.416Z,1.73
2019-03-15T00:41:54.450Z,1.80
2019-03-15T00:44:25.391Z,2.07
2019-03-15T00:46:59.085Z,1.87
2019-03-15T00:49:29.021Z,1.80
2019-03-15T00:51:59.020Z,2.77
2019-03-15T00:54:30.024Z,2.10
2019-03-15T00:57:00.113Z,2.37
2019-03-15T00:59:30.010Z,2.30
2019-03-15T01:02:00.160Z,2.17
2019-03-15T01:04:32.431Z,2.03
2019-03-15T01:07:05.555Z,2.13
2019-03-15T01:09:38.596Z,2.83
2019-03-15T01:12:09.571Z,1.77
2019-03-15T01:14:39.484Z,2.37
2019-03-15T01:17:09.625Z,2.40
2019-03-15T01:19:39.880Z,1.97
2019-03-15T01:22:09.870Z,2.50
2019-03-15T01:24:41.476Z,2.00
2019-03-15T01:27:11.706Z,2.73
2019-03-15T01:29:45.426Z,1.97
2019-03-15T01:32:16.625Z,2.10
2019-03-15T01:34:46.579Z,2.20
2019-03-15T01:37:16.446Z,2.50
2019-03-15T01:39:46.404Z,1.77
2019-03-15T01:42:16.481Z,2.17
2019-03-15T01:44:46.443Z,2.50
2019-03-15T01:47:17.304Z,2.33
2019-03-15T01:49:47.254Z,1.80
2019-03-15T01:52:17.227Z,1.60
2019-03-15T01:54:47.727Z,1.80
2019-03-15T01:57:17.905Z,2.30
2019-03-15T01:59:48.389Z,2.20
2019-03-15T02:02:18.609Z,1.80
2019-03-15T02:04:48.457Z,3.17
2019-03-15T02:07:18.352Z,2.20
2019-03-15T02:10:01.027Z,2.50
2019-03-15T02:12:30.934Z,2.77
2019-03-15T02:15:00.902Z,2.07
2019-03-15T02:17:30.915Z,2.00
2019-03-15T02:20:01.599Z,2.43
2019-03-15T02:22:31.655Z,2.60
2019-03-15T02:25:01.757Z,2.13
2019-03-15T02:27:32.136Z,2.83
2019-03-15T02:30:02.104Z,2.23
2019-03-15T02:32:32.285Z,1.97
2019-03-15T02:35:02.776Z,2.20
2019-03-15T02:37:34.183Z,1.73
2019-03-15T02:40:04.434Z,2.03
2019-03-15T02:42:34.784Z,2.20
2019-03-15T02:45:06.217Z,2.23
2019-03-15T02:47:38.358Z,1.90
2019-03-15T02:50:08.973Z,1.80
2019-03-15T02:52:39.065Z,2.40
2019-03-15T02:55:09.007Z,2.10
2019-03-15T02:57:38.852Z,1.80
2019-03-15T03:00:09.498Z,2.77
2019-03-15T03:02:39.467Z,2.63
2019-03-15T03:05:09.934Z,2.23
2019-03-15T03:07:40.219Z,2.00
2019-03-15T03:10:10.285Z,2.57
2019-03-15T03:12:40.196Z,2.53
2019-03-15T03:15:10.826Z,2.63
2019-03-15T03:17:41.094Z,2.70
2019-03-15T03:20:11.327Z,2.70
2019-03-15T03:22:41.533Z,2.27
2019-03-15T03:25:11.669Z,2.33
2019-03-15T03:27:41.648Z,2.13
2019-03-15T03:30:12.057Z,2.23
2019-03-15T03:32:45.619Z,2.50
2019-03-15T03:35:15.553Z,2.10
2019-03-15T03:37:46.423Z,2.83
2019-03-15T03:40:19.792Z,3.23
2019-03-15T03:42:48.027Z,2.10
2019-03-15T03:45:17.975Z,2.10
2019-03-15T03:47:50.208Z,2.50
2019-03-15T03:50:20.223Z,2.37
2019-03-15T03:52:50.631Z,2.20
2019-03-15T03:55:20.925Z,2.30
2019-03-15T03:57:51.337Z,2.17
2019-03-15T04:00:21.317Z,2.20
2019-03-15T04:02:53.274Z,2.10
2019-03-15T04:05:23.614Z,2.20
2019-03-15T04:07:53.671Z,2.13
2019-03-15T04:10:23.615Z,1.87
2019-03-15T04:13:09.575Z,3.13
2019-03-15T04:15:45.447Z,2.50
2019-03-15T04:18:15.389Z,2.83
2019-03-15T04:20:45.950Z,2.10
2019-03-15T04:23:16.347Z,2.30
2019-03-15T04:25:46.242Z,2.20
2019-03-15T04:28:19.675Z,2.30
2019-03-15T04:30:49.956Z,1.80
2019-03-15T04:33:19.938Z,1.87
2019-03-15T04:35:52.202Z,2.13
2019-03-15T04:38:22.585Z,2.13
2019-03-15T04:40:52.542Z,2.57
2019-03-15T04:43:22.753Z,2.70
2019-03-15T04:45:52.795Z,2.27
2019-03-15T04:48:23.168Z,4.43
2019-03-15T04:50:53.221Z,2.97
2019-03-15T04:53:23.090Z,2.30
2019-03-15T04:55:55.520Z,3.37
2019-03-15T04:58:26.934Z,3.60
2019-03-15T05:00:56.867Z,3.93
2019-03-15T05:03:27.097Z,8.30
2019-03-15T05:06:03.466Z,4.77
2019-03-15T05:08:32.556Z,6.23
2019-03-15T05:11:08.021Z,3.30
2019-03-15T05:13:38.638Z,4.03
2019-03-15T05:16:08.572Z,4.67
2019-03-15T05:18:39.032Z,4.43
2019-03-15T05:21:09.831Z,4.23
2019-03-15T05:23:40.361Z,3.83
2019-03-15T05:26:10.384Z,4.33
2019-03-15T05:28:42.037Z,3.47
2019-03-15T05:31:12.320Z,3.00
2019-03-15T05:33:43.787Z,3.63
2019-03-15T05:36:14.217Z,4.00
2019-03-15T05:38:44.686Z,3.30
2019-03-15T05:41:15.173Z,3.77
2019-03-15T05:43:45.621Z,4.23
2019-03-15T05:46:15.693Z,4.03
2019-03-15T05:48:48.515Z,3.80
2019-03-15T05:51:18.461Z,3.47
2019-03-15T05:53:48.456Z,4.53
2019-03-15T05:56:19.576Z,3.40
2019-03-15T05:58:51.281Z,5.30
2019-03-15T06:01:22.400Z,4.47
2019-03-15T06:03:53.065Z,4.30
2019-03-15T06:06:23.465Z,3.37
2019-03-15T06:08:53.889Z,3.80
2019-03-15T06:11:24.800Z,3.13
2019-03-15T06:13:58.555Z,3.63
2019-03-15T06:16:29.072Z,4.13
2019-03-15T06:19:02.876Z,3.20
2019-03-15T06:21:35.295Z,3.20
2019-03-15T06:24:06.456Z,3.80
2019-03-15T06:26:42.526Z,4.30
2019-03-15T06:29:12.460Z,3.23
2019-03-15T06:31:49.717Z,3.40
2019-03-15T06:34:19.677Z,3.93
2019-03-15T06:36:53.146Z,3.30
2019-03-15T06:39:23.437Z,2.83
2019-03-15T06:41:54.111Z,4.10
2019-03-15T06:44:24.030Z,3.13
2019-03-15T06:46:55.311Z,2.97
2019-03-15T06:49:28.198Z,4.47
2019-03-15T06:52:04.188Z,5.30
2019-03-15T06:54:33.720Z,3.80
2019-03-15T06:57:11.503Z,3.70
2019-03-15T06:59:41.737Z,4.33
2019-03-15T07:02:11.806Z,3.73
2019-03-15T07:04:44.225Z,4.27
2019-03-15T07:07:18.890Z,4.90
2019-03-15T07:09:49.645Z,5.63
2019-03-15T07:12:22.106Z,5.37
2019-03-15T07:14:52.386Z,5.00
2019-03-15T07:17:22.441Z,4.67
2019-03-15T07:19:52.414Z,5.37
2019-03-15T07:22:22.437Z,5.50
2019-03-15T07:24:52.406Z,6.77
2019-03-15T07:27:42.513Z,7.00
2019-03-15T07:30:12.094Z,6.00
2019-03-15T07:32:44.704Z,5.87
2019-03-15T07:35:14.881Z,5.70
2019-03-15T07:37:45.707Z,7.97
2019-03-15T07:40:16.448Z,6.33
2019-03-15T07:42:46.526Z,7.80
2019-03-15T07:45:16.451Z,9.53
2019-03-15T07:47:46.694Z,9.30
2019-03-15T07:50:18.099Z,9.70
2019-03-15T07:52:48.134Z,10.10
2019-03-15T07:55:18.136Z,9.80
2019-03-15T07:57:48.070Z,10.47
2019-03-15T08:00:17.339Z,9.43
2019-03-15T08:02:53.569Z,8.60
2019-03-15T08:05:33.567Z,6.57
2019-03-15T08:08:03.494Z,5.13
2019-03-15T08:10:33.403Z,4.90
2019-03-15T08:13:03.847Z,5.93
2019-03-15T08:15:33.762Z,6.40
2019-03-15T08:18:03.716Z,8.30
2019-03-15T08:20:38.317Z,9.43
2019-03-15T08:23:09.526Z,8.37
2019-03-15T08:25:39.432Z,8.90
2019-03-15T08:28:09.437Z,8.83
2019-03-15T08:30:39.575Z,7.57
2019-03-15T08:33:11.042Z,9.23
2019-03-15T08:35:41.361Z,8.30
2019-03-15T08:38:12.332Z,7.70
2019-03-15T08:40:49.427Z,8.10
2019-03-15T08:43:19.629Z,8.13
2019-03-15T08:45:49.557Z,7.33
2019-03-15T08:48:19.594Z,6.40
2019-03-15T08:50:53.075Z,7.70
2019-03-15T08:53:23.692Z,7.43
2019-03-15T08:55:53.932Z,7.87
2019-03-15T08:58:28.238Z,7.03
2019-03-15T09:00:58.281Z,7.77
2019-03-15T09:03:28.636Z,6.53
2019-03-15T09:05:58.925Z,6.53
2019-03-15T09:08:31.760Z,6.73
2019-03-15T09:11:04.137Z,8.03
2019-03-15T09:13:36.920Z,7.20
2019-03-15T09:16:07.661Z,8.30
2019-03-15T09:18:37.662Z,7.97
2019-03-15T09:21:07.690Z,7.23
2019-03-15T09:23:38.931Z,8.47
2019-03-15T09:26:12.625Z,6.73
2019-03-15T09:28:43.207Z,8.13
2019-03-15T09:31:13.172Z,8.10
2019-03-15T09:33:44.835Z,8.33
2019-03-15T09:36:14.970Z,9.63
2019-03-15T09:38:45.295Z,9.43
2019-03-15T09:41:15.597Z,9.80
2019-03-15T09:43:46.318Z,8.93
2019-03-15T09:46:16.728Z,9.47
2019-03-15T09:48:47.243Z,7.80
2019-03-15T09:51:17.248Z,8.53
2019-03-15T09:53:47.236Z,7.70
2019-03-15T09:56:20.742Z,7.00
2019-03-15T09:58:51.492Z,7.90
2019-03-15T10:01:34.664Z,7.43
2019-03-15T10:03:55.901Z,7.27
2019-03-15T10:06:28.400Z,8.37
2019-03-15T10:09:00.415Z,7.77
2019-03-15T10:11:30.342Z,8.13
2019-03-15T10:14:02.241Z,8.87
2019-03-15T10:16:32.044Z,8.10
2019-03-15T10:19:02.312Z,8.33
2019-03-15T10:21:32.414Z,8.30
2019-03-15T10:24:08.197Z,8.70
2019-03-15T10:26:41.113Z,9.90
2019-03-15T10:29:15.633Z,9.80
2019-03-15T10:31:43.470Z,10.40
2019-03-15T10:34:14.740Z,10.17
2019-03-15T10:36:44.748Z,11.50
2019-03-15T10:39:16.990Z,11.30
2019-03-15T10:41:46.345Z,11.50
2019-03-15T10:44:24.394Z,11.17
2019-03-15T10:46:57.562Z,10.17
2019-03-15T10:49:30.754Z,9.77
2019-03-15T10:52:00.141Z,9.37
2019-03-15T10:54:30.486Z,10.57
2019-03-15T10:57:11.967Z,9.60
2019-03-15T10:59:42.535Z,10.63
2019-03-15T11:02:14.836Z,9.80
2019-03-15T11:04:45.051Z,8.20
2019-03-15T11:07:31.782Z,7.87
2019-03-15T11:10:06.183Z,7.27
2019-03-15T11:12:34.441Z,6.90
2019-03-15T11:15:07.842Z,5.87
2019-03-15T11:17:37.886Z,6.20
2019-03-15T11:20:08.686Z,6.37
2019-03-15T11:22:39.203Z,6.20
2019-03-15T11:25:12.034Z,6.97
2019-03-15T11:27:43.859Z,6.77
2019-03-15T11:30:18.163Z,5.73
2019-03-15T11:32:49.916Z,5.10
2019-03-15T11:35:21.419Z,5.00
2019-03-15T11:37:54.333Z,5.00
2019-03-15T11:40:28.857Z,3.97
2019-03-15T11:42:58.921Z,3.17
2019-03-15T11:45:29.525Z,3.97
2019-03-15T11:48:04.379Z,3.50
2019-03-15T11:50:31.562Z,4.27
2019-03-15T11:53:02.046Z,3.67
2019-03-15T11:55:32.270Z,3.70
2019-03-15T11:59:08.696Z,3.63
2019-03-15T12:00:49.376Z,3.13
2019-03-15T12:03:19.310Z,3.23
2019-03-15T12:05:50.826Z,3.10
2019-03-15T12:08:21.555Z,2.83
2019-03-15T12:10:51.664Z,3.30
2019-03-15T12:13:22.055Z,3.30
2019-03-15T12:15:59.111Z,4.57
2019-03-15T12:18:32.050Z,4.50
2019-03-15T12:21:03.100Z,4.17
2019-03-15T12:23:33.611Z,3.20
2019-03-15T12:26:03.750Z,4.23
2019-03-15T12:28:36.236Z,4.37
2019-03-15T12:31:07.932Z,4.37
2019-03-15T12:33:43.698Z,3.67
2019-03-15T12:36:15.206Z,3.90
2019-03-15T12:38:48.901Z,3.80
2019-03-15T12:41:26.702Z,4.20
2019-03-15T12:43:58.983Z,4.17
2019-03-15T12:46:29.487Z,3.10
2019-03-15T12:49:06.905Z,3.80
2019-03-15T12:51:37.147Z,3.23
2019-03-15T12:54:14.510Z,2.90
2019-03-15T12:56:53.700Z,3.40
2019-03-15T12:59:16.582Z,4.70
2019-03-15T13:01:48.231Z,3.10
2019-03-15T13:04:22.513Z,2.53
2019-03-15T13:06:52.997Z,3.13
2019-03-15T13:09:25.531Z,3.00
2019-03-15T13:12:03.399Z,1.87
2019-03-15T13:14:46.809Z,2.77
2019-03-15T13:17:31.241Z,2.40
2019-03-15T13:20:07.839Z,1.87
2019-03-15T13:25:29.683Z,2.47
2019-03-15T13:28:00.032Z,2.53
2019-03-15T13:30:34.506Z,2.23
2019-03-15T13:33:19.670Z,2.60
2019-03-15T13:35:45.800Z,2.90
2019-03-15T13:38:18.347Z,3.00
2019-03-15T13:41:01.354Z,3.53
2019-03-15T13:43:36.885Z,4.30
2019-03-15T13:46:07.284Z,4.20
2019-03-15T13:48:47.938Z,4.00
2019-03-15T13:51:18.232Z,4.40
2019-03-15T13:53:52.511Z,4.63
2019-03-15T13:56:23.226Z,5.33
2019-03-15T13:59:31.468Z,4.90
2019-03-15T14:02:01.600Z,5.10
2019-03-15T14:04:33.051Z,6.67
2019-03-15T14:07:16.292Z,8.83
2019-03-15T14:09:50.337Z,9.93
2019-03-15T14:12:24.013Z,8.63
2019-03-15T14:15:11.917Z,9.57
2019-03-15T14:17:42.107Z,9.57
2019-03-15T14:20:16.567Z,10.67
2019-03-15T14:22:58.622Z,9.80
2019-03-15T14:25:31.348Z,10.60
2019-03-15T14:28:05.098Z,10.23
2019-03-15T14:30:38.526Z,10.20
2019-03-15T14:33:10.927Z,11.33
2019-03-15T14:35:46.871Z,11.10
2019-03-15T14:38:17.358Z,10.43
2019-03-15T14:40:49.600Z,10.97
2019-03-15T14:43:21.865Z,9.03
2019-03-15T14:45:53.065Z,9.37
2019-03-15T14:48:26.482Z,9.10
2019-03-15T14:50:57.487Z,9.80
2019-03-15T14:53:50.163Z,8.93
2019-03-15T14:56:25.801Z,8.63
2019-03-15T14:58:56.710Z,9.77
2019-03-15T15:01:33.511Z,9.57
2019-03-15T15:04:05.018Z,10.03
2019-03-15T15:06:45.217Z,9.90
2019-03-15T15:09:20.679Z,9.67
2019-03-15T15:11:51.506Z,8.80
2019-03-15T15:14:24.675Z,9.17
2019-03-15T15:16:55.317Z,10.10
2019-03-15T15:19:31.785Z,8.83
2019-03-15T15:22:03.417Z,8.77
2019-03-15T15:24:37.587Z,10.23
2019-03-15T15:27:25.587Z,10.80
2019-03-15T15:30:00.555Z,10.07
2019-03-15T15:32:31.732Z,9.53
2019-03-15T15:35:12.061Z,10.47
2019-03-15T15:37:52.111Z,10.50
2019-03-15T15:40:24.462Z,10.60
2019-03-15T15:43:07.065Z,10.47
2019-03-15T15:45:37.649Z,10.13
2019-03-15T15:48:10.373Z,9.67
2019-03-15T15:50:40.636Z,9.13
2019-03-15T15:53:37.543Z,10.33
2019-03-15T15:56:11.469Z,9.43
2019-03-15T15:58:46.557Z,9.53
2019-03-15T16:01:41.240Z,8.10
2019-03-15T16:04:11.922Z,7.30
2019-03-15T16:07:07.064Z,7.90
2019-03-15T16:09:41.573Z,5.73
2019-03-15T16:12:12.167Z,4.57
2019-03-15T16:15:03.244Z,3.67
2019-03-15T16:17:45.080Z,3.57
2019-03-15T16:20:18.667Z,3.33
2019-03-15T16:22:49.151Z,2.63
2019-03-15T16:25:24.539Z,2.60
2019-03-15T16:27:55.192Z,2.10
2019-03-15T16:30:29.537Z,1.70
2019-03-15T16:33:06.565Z,1.60
2019-03-15T16:35:43.243Z,1.57
2019-03-15T16:38:17.468Z,1.70
2019-03-15T16:40:57.876Z,1.83
2019-03-15T16:43:29.369Z,2.07
2019-03-15T16:46:00.051Z,2.13
2019-03-15T16:48:34.732Z,3.23
2019-03-15T16:51:19.115Z,1.93
2019-03-15T16:53:59.404Z,1.70
2019-03-15T16:56:34.096Z,1.70
2019-03-15T16:59:05.356Z,2.10
2019-03-15T17:01:43.596Z,2.23
2019-03-15T17:04:33.571Z,2.03
2019-03-15T17:07:13.918Z,2.60
2019-03-15T17:09:46.171Z,2.70
2019-03-15T17:12:21.505Z,3.10
2019-03-15T17:14:58.420Z,2.20
2019-03-15T17:17:35.457Z,1.93
2019-03-15T17:20:09.673Z,2.17
2019-03-15T17:22:42.599Z,2.10
2019-03-15T17:25:29.682Z,3.67
2019-03-15T17:27:59.994Z,2.93
2019-03-15T17:30:33.381Z,3.47
2019-03-15T17:33:06.133Z,2.90
2019-03-15T17:36:23.480Z,2.23
2019-03-15T17:38:53.753Z,2.07
2019-03-15T17:41:26.102Z,1.90
2019-03-15T17:43:58.162Z,2.60
2019-03-15T17:46:38.078Z,2.50
2019-03-15T17:49:12.157Z,2.83
2019-03-15T17:51:42.792Z,1.83
2019-03-15T17:54:38.006Z,2.07
2019-03-15T17:57:11.587Z,2.83
2019-03-15T18:00:33.714Z,2.10
2019-03-15T18:03:04.007Z,1.97
2019-03-15T18:05:37.411Z,2.00
2019-03-15T18:08:10.045Z,2.07
2019-03-15T18:10:44.879Z,2.17
2019-03-15T18:13:27.828Z,2.00
2019-03-15T18:15:58.838Z,2.37
2019-03-15T18:18:30.841Z,2.67
2019-03-15T18:23:44.150Z,2.77
2019-03-15T18:26:22.110Z,3.27
2019-03-15T18:29:25.855Z,3.80
2019-03-15T18:31:45.853Z,3.70
2019-03-15T18:34:18.661Z,2.77
2019-03-15T18:36:52.731Z,3.43
2019-03-15T18:39:34.133Z,3.63
2019-03-15T18:42:31.565Z,2.83
2019-03-15T18:45:52.429Z,4.60
2019-03-15T18:51:29.430Z,3.03
2019-03-15T18:54:00.067Z,3.30
2019-03-15T18:56:31.824Z,3.50
2019-03-15T18:59:39.372Z,3.07
2019-03-15T19:02:02.891Z,3.27
2019-03-15T19:04:33.916Z,3.07
2019-03-15T19:07:18.914Z,3.77
2019-03-15T19:09:56.911Z,2.57
2019-03-15T19:12:33.426Z,2.70
2019-03-15T19:15:07.068Z,2.90
2019-03-15T19:17:45.223Z,3.13
2019-03-15T19:20:26.334Z,3.37
2019-03-15T19:22:57.468Z,2.47
2019-03-15T19:25:43.587Z,2.97
2019-03-15T19:28:17.004Z,2.57
2019-03-15T19:30:49.924Z,1.97
2019-03-15T19:33:27.128Z,2.33
2019-03-15T19:35:59.458Z,2.23
2019-03-15T19:38:35.354Z,2.43
2019-03-15T19:41:22.563Z,2.57
2019-03-15T19:47:45.925Z,1.90
2019-03-15T19:50:17.188Z,2.40
2019-03-15T19:55:33.435Z,2.33
2019-03-15T19:58:09.021Z,2.63
2019-03-15T20:01:24.690Z,2.90
2019-03-15T20:03:56.189Z,2.43
2019-03-15T20:06:39.874Z,2.40
2019-03-15T20:09:14.731Z,2.50
2019-03-15T20:11:48.326Z,2.93
2019-03-15T20:14:21.210Z,2.50
2019-03-15T20:16:53.167Z,2.70
2019-03-15T20:19:31.538Z,2.90
2019-03-15T20:22:03.495Z,3.20
2019-03-15T20:24:40.565Z,3.50
2019-03-15T20:27:12.785Z,2.90
2019-03-15T20:29:44.328Z,3.70
2019-03-15T20:32:16.796Z,3.30
2019-03-15T20:34:47.203Z,2.90
2019-03-15T20:37:18.253Z,3.03
2019-03-15T20:39:59.924Z,2.77
2019-03-15T20:43:22.461Z,3.10
2019-03-15T20:45:58.322Z,2.53
2019-03-15T20:48:48.069Z,3.23
2019-03-15T20:51:19.770Z,2.67
2019-03-15T20:53:56.470Z,3.10
2019-03-15T20:56:27.968Z,2.87
2019-03-15T20:59:04.178Z,3.07
2019-03-15T21:01:43.174Z,3.57
2019-03-15T21:04:15.078Z,3.37
2019-03-15T21:06:58.218Z,3.13
2019-03-15T21:09:28.332Z,3.50
2019-03-15T21:12:14.517Z,2.90
2019-03-15T21:14:49.325Z,2.90
2019-03-15T21:17:32.300Z,4.63
2019-03-15T21:20:24.630Z,3.20
2019-03-15T21:23:06.463Z,2.67
2019-03-15T21:25:38.520Z,3.50
2019-03-15T21:28:12.738Z,2.87
2019-03-15T21:30:48.614Z,2.60
2019-03-15T21:33:28.563Z,2.63
2019-03-15T21:35:59.963Z,4.17
2019-03-15T21:38:48.533Z,3.77
2019-03-15T21:41:26.049Z,8.60
2019-03-15T21:44:09.416Z,7.13
2019-03-15T21:46:44.590Z,6.30
2019-03-15T21:49:15.362Z,7.53
2019-03-15T21:51:52.399Z,7.13
2019-03-15T21:54:22.802Z,4.50
2019-03-15T21:56:53.367Z,5.07
2019-03-15T21:59:23.919Z,5.20
2019-03-15T22:01:55.488Z,4.00
2019-03-15T22:04:25.867Z,4.13
2019-03-15T22:07:04.522Z,4.50
2019-03-15T22:09:37.367Z,4.97
2019-03-15T22:12:13.236Z,6.10
2019-03-15T22:14:49.902Z,4.80
2019-03-15T22:17:24.409Z,4.07
2019-03-15T22:19:54.618Z,2.63
2019-03-15T22:22:26.107Z,3.50
2019-03-15T22:24:57.046Z,4.00
2019-03-15T22:27:34.585Z,2.77
2019-03-15T22:30:20.095Z,3.63
2019-03-15T22:32:53.276Z,3.17
2019-03-15T22:35:43.727Z,3.53
2019-03-15T22:38:28.549Z,6.90
2019-03-15T22:41:05.947Z,3.80
2019-03-15T22:43:39.586Z,3.40
2019-03-15T22:46:10.781Z,3.77
2019-03-15T22:49:11.154Z,2.97
2019-03-15T22:51:49.946Z,3.73
2019-03-15T22:54:28.879Z,3.37
2019-03-15T22:56:59.536Z,4.57
2019-03-15T22:59:36.296Z,5.77
2019-03-15T23:02:08.338Z,4.60
2019-03-15T23:04:42.025Z,3.80
2019-03-15T23:07:16.671Z,2.03
2019-03-15T23:09:48.360Z,2.30
2019-03-15T23:12:31.827Z,2.03
2019-03-15T23:15:02.841Z,2.20
2019-03-15T23:17:33.122Z,1.77
2019-03-15T23:20:44.686Z,3.03
2019-03-15T23:23:23.850Z,2.23
2019-03-15T23:25:54.895Z,2.67
2019-03-15T23:28:28.103Z,2.37
2019-03-15T23:31:05.307Z,2.10
2019-03-15T23:33:36.876Z,2.17
2019-03-15T23:36:19.676Z,2.80
2019-03-15T23:38:50.914Z,2.40
2019-03-15T23:41:21.347Z,2.17
2019-03-15T23:43:58.409Z,2.27
2019-03-15T23:46:30.794Z,2.03
2019-03-15T23:49:01.307Z,2.83
2019-03-15T23:51:32.256Z,2.47
2019-03-15T23:54:02.361Z,2.00
2019-03-15T23:56:34.592Z,2.07
2019-03-15T23:59:06.610Z,2.77
